Aérodrome :
LOGIN :

S'inscrire | Disclaimer

   EN    FR    IT 

 










Légende :    VFR   VFR Marginal   IFR   IFR Intensif   IFR Très Intensif
Visi : 
Plafond : 
>= 8 km
>= 3000ft
5 à 8 km
1000 à 3000 ft
1500m à 5 km
500 à 1000 ft
800 à 1500m
200 à 500 ft
< 800m
< 200 ft
Symboles :   Orages  Brouillard  Fortes neiges  Fortes précipitations  Vent > 20 kt
SIGMETs :   Divers  Orages  Givrage  Turbulence  Onde Orograph.  Cendres Volcan.






- Altitude de l'aérodrome : 52 ft
- Code IATA : IOM


EGNS - Isle of Man

DERNIER METAR :
  • 290750Z 05013KT 9999 FEW018 BKN023 10/05 Q1023 NOSIG

METARs EXPIRÉS :
  • 290720Z 05013KT 9999 FEW018 SCT022 BKN028 10/05 Q1023 NOSIG
  • 290650Z 08012KT 9999 FEW020 BKN028 11/06 Q1022 NOSIG
  • 290620Z 07013KT 9999 BKN020 11/07 Q1022 NOSIG
  • 290550Z 09014KT 9999 BKN018 11/07 Q1022
  • 290520Z 10013KT 9999 FEW013 BKN018 11/08 Q1022

TAF TAF EGNS
Valide du 29 à 06h jusqu'au 29 à 15h UTC


290500Z 2906/2915 08015KT 9999 FEW012 SCT025
BECMG 2911/2914 01010KT



MET'MAP, la Météo Aéronautique d'un coup d'oeil ! - Copyright ORBIFLY Décembre 2007 - Disclaimer

ORBIFLY MET'MAP TEAM :

Programmation & Développement : Alexandra Zaïnal
Sur une idée originale de : Baudouin d'Aumeries
Soutien technique & logistique : Manuel Goepfert
Assistance : Marc-Olivier Méhu

Contact : metmap@orbifly.com




SOURCES & CREDITS :

   NOAA